sensor_id;sensor_type;location;lat;lon;timestamp;temperature;humidity
21316;DHT22;10817;55.820;13.030;2022-10-16T00:01:06;13.80;99.90
21316;DHT22;10817;55.820;13.030;2022-10-16T00:03:34;13.80;99.90
21316;DHT22;10817;55.820;13.030;2022-10-16T00:06:03;13.70;99.90
21316;DHT22;10817;55.820;13.030;2022-10-16T00:08:30;13.70;99.90
21316;DHT22;10817;55.820;13.030;2022-10-16T00:11:02;13.70;99.90
21316;DHT22;10817;55.820;13.030;2022-10-16T00:13:30;13.60;99.90
21316;DHT22;10817;55.820;13.030;2022-10-16T00:15:58;13.60;99.90
21316;DHT22;10817;55.820;13.030;2022-10-16T00:18:25;13.50;99.90
21316;DHT22;10817;55.820;13.030;2022-10-16T00:20:53;13.50;99.90
21316;DHT22;10817;55.820;13.030;2022-10-16T00:23:22;13.50;99.90
21316;DHT22;10817;55.820;13.030;2022-10-16T00:25:59;13.50;99.90
21316;DHT22;10817;55.820;13.030;2022-10-16T00:28:27;13.40;99.90
21316;DHT22;10817;55.820;13.030;2022-10-16T00:30:54;13.40;99.90
21316;DHT22;10817;55.820;13.030;2022-10-16T00:33:21;13.40;99.90
21316;DHT22;10817;55.820;13.030;2022-10-16T00:35:48;13.30;99.90
21316;DHT22;10817;55.820;13.030;2022-10-16T00:38:16;13.30;99.90
21316;DHT22;10817;55.820;13.030;2022-10-16T00:40:45;13.30;99.90
21316;DHT22;10817;55.820;13.030;2022-10-16T00:43:14;13.20;99.90
21316;DHT22;10817;55.820;13.030;2022-10-16T00:45:41;13.20;99.90
21316;DHT22;10817;55.820;13.030;2022-10-16T00:48:11;13.10;99.90
21316;DHT22;10817;55.820;13.030;2022-10-16T00:50:39;13.00;99.90
21316;DHT22;10817;55.820;13.030;2022-10-16T00:53:10;13.00;99.90
21316;DHT22;10817;55.820;13.030;2022-10-16T00:55:37;13.00;99.90
21316;DHT22;10817;55.820;13.030;2022-10-16T00:58:06;12.90;99.90
21316;DHT22;10817;55.820;13.030;2022-10-16T01:00:33;12.80;99.90
21316;DHT22;10817;55.820;13.030;2022-10-16T01:03:02;12.70;99.90
21316;DHT22;10817;55.820;13.030;2022-10-16T01:05:34;12.70;99.90
21316;DHT22;10817;55.820;13.030;2022-10-16T01:08:13;12.70;99.90
21316;DHT22;10817;55.820;13.030;2022-10-16T01:10:48;12.70;99.90
21316;DHT22;10817;55.820;13.030;2022-10-16T01:13:24;12.70;99.90
21316;DHT22;10817;55.820;13.030;2022-10-16T01:15:54;12.70;99.90
21316;DHT22;10817;55.820;13.030;2022-10-16T01:18:30;12.60;99.90
21316;DHT22;10817;55.820;13.030;2022-10-16T01:21:02;12.60;99.90
21316;DHT22;10817;55.820;13.030;2022-10-16T01:23:40;12.60;99.90
21316;DHT22;10817;55.820;13.030;2022-10-16T01:26:18;12.60;99.90
21316;DHT22;10817;55.820;13.030;2022-10-16T01:28:53;12.70;99.90
21316;DHT22;10817;55.820;13.030;2022-10-16T01:31:24;12.70;99.90
21316;DHT22;10817;55.820;13.030;2022-10-16T01:33:57;12.60;99.90
21316;DHT22;10817;55.820;13.030;2022-10-16T01:36:31;12.70;99.90
21316;DHT22;10817;55.820;13.030;2022-10-16T01:39:02;12.60;99.90
21316;DHT22;10817;55.820;13.030;2022-10-16T01:41:32;12.60;99.90
21316;DHT22;10817;55.820;13.030;2022-10-16T01:44:03;12.60;99.90
21316;DHT22;10817;55.820;13.030;2022-10-16T01:46:31;12.50;99.90
21316;DHT22;10817;55.820;13.030;2022-10-16T01:49:01;12.50;99.90
21316;DHT22;10817;55.820;13.030;2022-10-16T01:51:29;12.50;99.90
21316;DHT22;10817;55.820;13.030;2022-10-16T01:53:59;12.50;99.90
21316;DHT22;10817;55.820;13.030;2022-10-16T01:56:27;12.60;99.90
21316;DHT22;10817;55.820;13.030;2022-10-16T01:58:58;12.50;99.90
21316;DHT22;10817;55.820;13.030;2022-10-16T02:01:30;12.50;99.90
21316;DHT22;10817;55.820;13.030;2022-10-16T02:04:01;12.50;99.90
21316;DHT22;10817;55.820;13.030;2022-10-16T02:06:31;12.50;99.90
21316;DHT22;10817;55.820;13.030;2022-10-16T02:08:59;12.40;99.90
21316;DHT22;10817;55.820;13.030;2022-10-16T02:11:26;12.50;99.90
21316;DHT22;10817;55.820;13.030;2022-10-16T02:13:57;12.40;99.90
21316;DHT22;10817;55.820;13.030;2022-10-16T02:16:34;12.50;99.90
21316;DHT22;10817;55.820;13.030;2022-10-16T02:19:02;12.50;99.90
21316;DHT22;10817;55.820;13.030;2022-10-16T02:21:33;12.40;99.90
21316;DHT22;10817;55.820;13.030;2022-10-16T02:24:05;12.30;99.90
21316;DHT22;10817;55.820;13.030;2022-10-16T02:26:37;12.30;99.90
21316;DHT22;10817;55.820;13.030;2022-10-16T02:29:08;12.30;99.90
21316;DHT22;10817;55.820;13.030;2022-10-16T02:31:41;12.30;99.90
21316;DHT22;10817;55.820;13.030;2022-10-16T02:34:10;12.30;99.90
21316;DHT22;10817;55.820;13.030;2022-10-16T02:36:39;12.40;99.90
21316;DHT22;10817;55.820;13.030;2022-10-16T02:39:08;12.40;99.90
21316;DHT22;10817;55.820;13.030;2022-10-16T02:41:36;12.40;99.90
21316;DHT22;10817;55.820;13.030;2022-10-16T02:44:03;12.40;99.90
21316;DHT22;10817;55.820;13.030;2022-10-16T02:46:30;12.50;99.90
21316;DHT22;10817;55.820;13.030;2022-10-16T02:48:59;12.40;99.90
21316;DHT22;10817;55.820;13.030;2022-10-16T02:51:25;12.40;99.90
21316;DHT22;10817;55.820;13.030;2022-10-16T02:53:52;12.30;99.90
21316;DHT22;10817;55.820;13.030;2022-10-16T02:56:20;12.30;99.90
21316;DHT22;10817;55.820;13.030;2022-10-16T02:58:47;12.20;99.90
21316;DHT22;10817;55.820;13.030;2022-10-16T03:01:14;12.20;99.90
21316;DHT22;10817;55.820;13.030;2022-10-16T03:03:42;12.30;99.90
21316;DHT22;10817;55.820;13.030;2022-10-16T03:06:11;12.20;99.90
21316;DHT22;10817;55.820;13.030;2022-10-16T03:08:39;12.20;99.90
21316;DHT22;10817;55.820;13.030;2022-10-16T03:11:06;12.20;99.90
21316;DHT22;10817;55.820;13.030;2022-10-16T03:13:33;12.20;99.90
21316;DHT22;10817;55.820;13.030;2022-10-16T03:16:00;12.10;99.90
21316;DHT22;10817;55.820;13.030;2022-10-16T03:18:27;12.10;99.90
21316;DHT22;10817;55.820;13.030;2022-10-16T03:20:55;12.10;99.90
21316;DHT22;10817;55.820;13.030;2022-10-16T03:23:23;12.00;99.90
21316;DHT22;10817;55.820;13.030;2022-10-16T03:25:50;12.00;99.90
21316;DHT22;10817;55.820;13.030;2022-10-16T03:28:17;12.10;99.90
21316;DHT22;10817;55.820;13.030;2022-10-16T03:30:44;11.90;99.90
21316;DHT22;10817;55.820;13.030;2022-10-16T03:33:11;12.10;99.90
21316;DHT22;10817;55.820;13.030;2022-10-16T03:35:39;12.00;99.90
21316;DHT22;10817;55.820;13.030;2022-10-16T03:38:06;12.00;99.90
21316;DHT22;10817;55.820;13.030;2022-10-16T03:40:34;12.00;99.90
21316;DHT22;10817;55.820;13.030;2022-10-16T03:43:02;11.90;99.90
21316;DHT22;10817;55.820;13.030;2022-10-16T03:45:28;12.00;99.90
21316;DHT22;10817;55.820;13.030;2022-10-16T03:47:55;12.00;99.90
21316;DHT22;10817;55.820;13.030;2022-10-16T03:50:22;12.00;99.90
21316;DHT22;10817;55.820;13.030;2022-10-16T03:52:49;12.00;99.90
21316;DHT22;10817;55.820;13.030;2022-10-16T03:55:16;12.00;99.90
21316;DHT22;10817;55.820;13.030;2022-10-16T03:57:45;12.10;99.90
21316;DHT22;10817;55.820;13.030;2022-10-16T04:00:12;12.00;99.90
21316;DHT22;10817;55.820;13.030;2022-10-16T04:02:40;12.00;99.90
21316;DHT22;10817;55.820;13.030;2022-10-16T04:05:07;11.90;99.90
21316;DHT22;10817;55.820;13.030;2022-10-16T04:07:34;11.90;99.90
21316;DHT22;10817;55.820;13.030;2022-10-16T04:10:01;12.00;99.90
21316;DHT22;10817;55.820;13.030;2022-10-16T04:12:28;12.00;99.90
21316;DHT22;10817;55.820;13.030;2022-10-16T04:14:56;12.10;99.90
21316;DHT22;10817;55.820;13.030;2022-10-16T04:17:23;12.10;99.90
21316;DHT22;10817;55.820;13.030;2022-10-16T04:19:51;12.10;99.90
21316;DHT22;10817;55.820;13.030;2022-10-16T04:22:18;12.20;99.90
21316;DHT22;10817;55.820;13.030;2022-10-16T04:24:45;12.20;99.90
21316;DHT22;10817;55.820;13.030;2022-10-16T04:27:12;12.20;99.90
21316;DHT22;10817;55.820;13.030;2022-10-16T04:29:39;12.30;99.90
21316;DHT22;10817;55.820;13.030;2022-10-16T04:32:09;12.40;99.90
21316;DHT22;10817;55.820;13.030;2022-10-16T04:34:36;12.50;99.90
21316;DHT22;10817;55.820;13.030;2022-10-16T04:37:03;12.50;99.90
21316;DHT22;10817;55.820;13.030;2022-10-16T04:39:30;12.60;99.90
21316;DHT22;10817;55.820;13.030;2022-10-16T04:41:57;12.60;99.90
21316;DHT22;10817;55.820;13.030;2022-10-16T04:44:24;12.70;99.90
21316;DHT22;10817;55.820;13.030;2022-10-16T04:46:52;12.80;99.90
21316;DHT22;10817;55.820;13.030;2022-10-16T04:49:20;12.90;99.90
21316;DHT22;10817;55.820;13.030;2022-10-16T04:51:47;12.90;99.90
21316;DHT22;10817;55.820;13.030;2022-10-16T04:54:14;13.00;99.90
21316;DHT22;10817;55.820;13.030;2022-10-16T04:56:41;13.00;99.90
21316;DHT22;10817;55.820;13.030;2022-10-16T04:59:12;13.10;99.90
21316;DHT22;10817;55.820;13.030;2022-10-16T05:01:40;13.10;99.90
21316;DHT22;10817;55.820;13.030;2022-10-16T05:04:07;13.10;99.90
21316;DHT22;10817;55.820;13.030;2022-10-16T05:06:36;13.10;99.90
21316;DHT22;10817;55.820;13.030;2022-10-16T05:09:06;13.10;99.90
21316;DHT22;10817;55.820;13.030;2022-10-16T05:11:33;13.10;99.90
21316;DHT22;10817;55.820;13.030;2022-10-16T05:14:00;13.10;99.90
21316;DHT22;10817;55.820;13.030;2022-10-16T05:16:27;13.00;99.90
21316;DHT22;10817;55.820;13.030;2022-10-16T05:18:54;13.00;99.90
21316;DHT22;10817;55.820;13.030;2022-10-16T05:21:21;13.00;99.90
21316;DHT22;10817;55.820;13.030;2022-10-16T05:23:49;13.10;99.90
21316;DHT22;10817;55.820;13.030;2022-10-16T05:26:16;13.00;99.90
21316;DHT22;10817;55.820;13.030;2022-10-16T05:28:43;13.00;99.90
21316;DHT22;10817;55.820;13.030;2022-10-16T05:31:10;13.00;99.90
21316;DHT22;10817;55.820;13.030;2022-10-16T05:33:37;13.00;99.90
21316;DHT22;10817;55.820;13.030;2022-10-16T05:36:06;13.00;99.90
21316;DHT22;10817;55.820;13.030;2022-10-16T05:38:34;13.00;99.90
21316;DHT22;10817;55.820;13.030;2022-10-16T05:41:03;13.00;99.90
21316;DHT22;10817;55.820;13.030;2022-10-16T05:43:31;13.00;99.90
21316;DHT22;10817;55.820;13.030;2022-10-16T05:45:59;13.00;99.90
21316;DHT22;10817;55.820;13.030;2022-10-16T05:48:28;13.00;99.90
21316;DHT22;10817;55.820;13.030;2022-10-16T05:50:59;12.90;99.90
21316;DHT22;10817;55.820;13.030;2022-10-16T05:53:28;12.90;99.90
21316;DHT22;10817;55.820;13.030;2022-10-16T05:55:56;12.80;99.90
21316;DHT22;10817;55.820;13.030;2022-10-16T05:58:25;12.80;99.90
21316;DHT22;10817;55.820;13.030;2022-10-16T06:00:56;12.80;99.90
21316;DHT22;10817;55.820;13.030;2022-10-16T06:03:24;12.80;99.90
21316;DHT22;10817;55.820;13.030;2022-10-16T06:05:52;12.80;99.90
21316;DHT22;10817;55.820;13.030;2022-10-16T06:08:20;12.80;99.90
21316;DHT22;10817;55.820;13.030;2022-10-16T06:10:48;12.80;99.90
21316;DHT22;10817;55.820;13.030;2022-10-16T06:13:16;12.80;99.90
21316;DHT22;10817;55.820;13.030;2022-10-16T06:15:44;12.80;99.90
21316;DHT22;10817;55.820;13.030;2022-10-16T06:18:11;12.90;99.90
21316;DHT22;10817;55.820;13.030;2022-10-16T06:20:37;12.90;99.90
21316;DHT22;10817;55.820;13.030;2022-10-16T06:23:05;12.90;99.90
21316;DHT22;10817;55.820;13.030;2022-10-16T06:25:32;12.90;99.90
21316;DHT22;10817;55.820;13.030;2022-10-16T06:28:00;13.00;99.90
21316;DHT22;10817;55.820;13.030;2022-10-16T06:30:28;13.00;99.90
21316;DHT22;10817;55.820;13.030;2022-10-16T06:32:56;13.00;99.90
21316;DHT22;10817;55.820;13.030;2022-10-16T06:35:24;13.10;99.90
21316;DHT22;10817;55.820;13.030;2022-10-16T06:37:53;13.00;99.90
21316;DHT22;10817;55.820;13.030;2022-10-16T06:40:22;13.00;99.90
21316;DHT22;10817;55.820;13.030;2022-10-16T06:42:51;13.00;99.90
21316;DHT22;10817;55.820;13.030;2022-10-16T06:45:18;13.00;99.90
21316;DHT22;10817;55.820;13.030;2022-10-16T06:47:45;13.00;99.90
21316;DHT22;10817;55.820;13.030;2022-10-16T06:50:15;13.00;99.90
21316;DHT22;10817;55.820;13.030;2022-10-16T06:52:43;13.00;99.90
21316;DHT22;10817;55.820;13.030;2022-10-16T06:55:11;13.00;99.90
21316;DHT22;10817;55.820;13.030;2022-10-16T06:57:38;13.10;99.90
21316;DHT22;10817;55.820;13.030;2022-10-16T07:00:06;13.10;99.90
21316;DHT22;10817;55.820;13.030;2022-10-16T07:02:34;13.10;99.90
21316;DHT22;10817;55.820;13.030;2022-10-16T07:05:02;13.10;99.90
21316;DHT22;10817;55.820;13.030;2022-10-16T07:07:30;13.10;99.90
21316;DHT22;10817;55.820;13.030;2022-10-16T07:09:57;13.20;99.90
21316;DHT22;10817;55.820;13.030;2022-10-16T07:12:24;13.30;99.90
21316;DHT22;10817;55.820;13.030;2022-10-16T07:14:52;13.30;99.90
21316;DHT22;10817;55.820;13.030;2022-10-16T07:17:20;13.20;99.90
21316;DHT22;10817;55.820;13.030;2022-10-16T07:19:48;13.20;99.90
21316;DHT22;10817;55.820;13.030;2022-10-16T07:22:18;13.20;99.90
21316;DHT22;10817;55.820;13.030;2022-10-16T07:24:46;13.30;99.90
21316;DHT22;10817;55.820;13.030;2022-10-16T07:27:14;13.30;99.90
21316;DHT22;10817;55.820;13.030;2022-10-16T07:29:43;13.30;99.90
21316;DHT22;10817;55.820;13.030;2022-10-16T07:32:11;13.30;99.90
21316;DHT22;10817;55.820;13.030;2022-10-16T07:34:42;13.30;99.90
21316;DHT22;10817;55.820;13.030;2022-10-16T07:37:13;13.50;99.90
21316;DHT22;10817;55.820;13.030;2022-10-16T07:39:42;13.50;99.90
21316;DHT22;10817;55.820;13.030;2022-10-16T07:42:10;13.60;99.90
21316;DHT22;10817;55.820;13.030;2022-10-16T07:44:38;13.70;99.90
21316;DHT22;10817;55.820;13.030;2022-10-16T07:47:07;13.80;99.90
21316;DHT22;10817;55.820;13.030;2022-10-16T07:49:34;13.80;99.90
21316;DHT22;10817;55.820;13.030;2022-10-16T07:52:02;13.80;99.90
21316;DHT22;10817;55.820;13.030;2022-10-16T07:54:29;13.90;99.90
21316;DHT22;10817;55.820;13.030;2022-10-16T07:56:56;13.90;99.90
21316;DHT22;10817;55.820;13.030;2022-10-16T07:59:27;14.10;99.90
21316;DHT22;10817;55.820;13.030;2022-10-16T08:01:55;14.20;99.90
21316;DHT22;10817;55.820;13.030;2022-10-16T08:04:22;14.10;99.90
21316;DHT22;10817;55.820;13.030;2022-10-16T08:06:49;13.90;99.90
21316;DHT22;10817;55.820;13.030;2022-10-16T08:09:16;13.80;99.90
21316;DHT22;10817;55.820;13.030;2022-10-16T08:11:43;13.90;99.90
21316;DHT22;10817;55.820;13.030;2022-10-16T08:14:10;14.00;99.90
21316;DHT22;10817;55.820;13.030;2022-10-16T08:16:44;14.10;99.90
21316;DHT22;10817;55.820;13.030;2022-10-16T08:19:12;14.20;99.90
21316;DHT22;10817;55.820;13.030;2022-10-16T08:21:41;14.40;99.90
21316;DHT22;10817;55.820;13.030;2022-10-16T08:24:08;14.60;99.90
21316;DHT22;10817;55.820;13.030;2022-10-16T08:26:35;14.70;99.90
21316;DHT22;10817;55.820;13.030;2022-10-16T08:29:04;14.60;99.90
21316;DHT22;10817;55.820;13.030;2022-10-16T08:31:32;14.60;99.90
21316;DHT22;10817;55.820;13.030;2022-10-16T08:34:00;14.50;99.90
21316;DHT22;10817;55.820;13.030;2022-10-16T08:36:28;14.40;99.90
21316;DHT22;10817;55.820;13.030;2022-10-16T08:38:55;14.30;99.90
21316;DHT22;10817;55.820;13.030;2022-10-16T08:41:58;14.20;99.90
21316;DHT22;10817;55.820;13.030;2022-10-16T08:47:39;14.30;99.90
21316;DHT22;10817;55.820;13.030;2022-10-16T08:50:11;14.20;99.90
21316;DHT22;10817;55.820;13.030;2022-10-16T08:52:43;14.20;99.90
21316;DHT22;10817;55.820;13.030;2022-10-16T08:55:28;14.30;99.90
21316;DHT22;10817;55.820;13.030;2022-10-16T08:57:56;14.40;99.90
21316;DHT22;10817;55.820;13.030;2022-10-16T09:00:24;14.40;99.90
21316;DHT22;10817;55.820;13.030;2022-10-16T09:02:58;14.40;99.90
21316;DHT22;10817;55.820;13.030;2022-10-16T09:05:51;14.40;99.90
21316;DHT22;10817;55.820;13.030;2022-10-16T09:08:25;14.50;99.90
21316;DHT22;10817;55.820;13.030;2022-10-16T09:10:59;14.40;99.90
21316;DHT22;10817;55.820;13.030;2022-10-16T09:13:35;14.30;99.90
21316;DHT22;10817;55.820;13.030;2022-10-16T09:16:14;14.30;99.90
21316;DHT22;10817;55.820;13.030;2022-10-16T09:18:50;14.30;99.90
21316;DHT22;10817;55.820;13.030;2022-10-16T09:21:24;14.50;99.90
21316;DHT22;10817;55.820;13.030;2022-10-16T09:23:54;14.50;99.90
21316;DHT22;10817;55.820;13.030;2022-10-16T09:26:24;15.00;99.90
21316;DHT22;10817;55.820;13.030;2022-10-16T09:28:52;15.10;99.90
21316;DHT22;10817;55.820;13.030;2022-10-16T09:31:20;15.20;99.90
21316;DHT22;10817;55.820;13.030;2022-10-16T09:33:52;15.70;99.90
21316;DHT22;10817;55.820;13.030;2022-10-16T09:36:23;16.70;99.90
21316;DHT22;10817;55.820;13.030;2022-10-16T09:39:02;17.00;99.90
21316;DHT22;10817;55.820;13.030;2022-10-16T09:41:30;16.00;99.90
21316;DHT22;10817;55.820;13.030;2022-10-16T09:43:59;15.40;99.90
21316;DHT22;10817;55.820;13.030;2022-10-16T09:46:30;14.20;99.90
21316;DHT22;10817;55.820;13.030;2022-10-16T09:48:59;15.30;99.90
21316;DHT22;10817;55.820;13.030;2022-10-16T09:51:30;15.50;99.90
21316;DHT22;10817;55.820;13.030;2022-10-16T09:54:00;15.40;99.90
21316;DHT22;10817;55.820;13.030;2022-10-16T09:56:29;15.30;99.90
21316;DHT22;10817;55.820;13.030;2022-10-16T09:58:59;15.50;99.90
21316;DHT22;10817;55.820;13.030;2022-10-16T10:01:35;17.50;99.90
21316;DHT22;10817;55.820;13.030;2022-10-16T10:04:04;17.00;99.90
21316;DHT22;10817;55.820;13.030;2022-10-16T10:06:34;17.80;99.90
21316;DHT22;10817;55.820;13.030;2022-10-16T10:09:06;18.40;99.90
21316;DHT22;10817;55.820;13.030;2022-10-16T10:11:49;18.70;99.90
21316;DHT22;10817;55.820;13.030;2022-10-16T10:14:22;18.80;99.90
21316;DHT22;10817;55.820;13.030;2022-10-16T10:16:51;18.70;99.90
21316;DHT22;10817;55.820;13.030;2022-10-16T10:19:20;18.60;99.90
21316;DHT22;10817;55.820;13.030;2022-10-16T10:21:50;18.40;99.90
21316;DHT22;10817;55.820;13.030;2022-10-16T10:24:19;18.40;99.90
21316;DHT22;10817;55.820;13.030;2022-10-16T10:26:53;18.80;99.90
21316;DHT22;10817;55.820;13.030;2022-10-16T10:29:36;19.10;99.90
21316;DHT22;10817;55.820;13.030;2022-10-16T10:32:19;19.00;99.90
21316;DHT22;10817;55.820;13.030;2022-10-16T10:35:13;18.80;99.90
21316;DHT22;10817;55.820;13.030;2022-10-16T10:37:53;18.90;99.90
21316;DHT22;10817;55.820;13.030;2022-10-16T10:40:30;18.80;99.90
21316;DHT22;10817;55.820;13.030;2022-10-16T10:43:05;19.00;99.90
21316;DHT22;10817;55.820;13.030;2022-10-16T10:45:42;19.10;99.90
21316;DHT22;10817;55.820;13.030;2022-10-16T10:48:20;18.80;99.90
21316;DHT22;10817;55.820;13.030;2022-10-16T10:50:55;17.90;99.90
21316;DHT22;10817;55.820;13.030;2022-10-16T10:53:36;17.20;99.90
21316;DHT22;10817;55.820;13.030;2022-10-16T10:56:16;17.70;99.90
21316;DHT22;10817;55.820;13.030;2022-10-16T10:59:05;18.10;99.90
21316;DHT22;10817;55.820;13.030;2022-10-16T11:01:39;18.70;99.90
21316;DHT22;10817;55.820;13.030;2022-10-16T11:04:24;18.90;99.90
21316;DHT22;10817;55.820;13.030;2022-10-16T11:06:57;20.40;99.90
21316;DHT22;10817;55.820;13.030;2022-10-16T11:09:31;19.60;99.90
21316;DHT22;10817;55.820;13.030;2022-10-16T11:12:06;20.30;99.90
21316;DHT22;10817;55.820;13.030;2022-10-16T11:14:38;20.00;99.90
21316;DHT22;10817;55.820;13.030;2022-10-16T11:17:10;20.10;99.90
21316;DHT22;10817;55.820;13.030;2022-10-16T11:19:44;20.70;99.90
21316;DHT22;10817;55.820;13.030;2022-10-16T11:22:19;21.10;99.90
21316;DHT22;10817;55.820;13.030;2022-10-16T11:24:53;21.70;99.90
21316;DHT22;10817;55.820;13.030;2022-10-16T11:27:27;21.60;99.90
21316;DHT22;10817;55.820;13.030;2022-10-16T11:30:02;20.60;99.90
21316;DHT22;10817;55.820;13.030;2022-10-16T11:32:45;19.90;99.90
21316;DHT22;10817;55.820;13.030;2022-10-16T11:35:19;19.70;99.90
21316;DHT22;10817;55.820;13.030;2022-10-16T11:37:50;20.20;99.90
21316;DHT22;10817;55.820;13.030;2022-10-16T11:40:26;20.10;99.90
21316;DHT22;10817;55.820;13.030;2022-10-16T11:42:57;20.50;99.90
21316;DHT22;10817;55.820;13.030;2022-10-16T11:45:32;21.20;99.90
21316;DHT22;10817;55.820;13.030;2022-10-16T11:48:07;21.50;99.90
21316;DHT22;10817;55.820;13.030;2022-10-16T11:50:43;21.40;99.90
21316;DHT22;10817;55.820;13.030;2022-10-16T11:53:18;21.50;99.90
21316;DHT22;10817;55.820;13.030;2022-10-16T11:55:50;21.30;99.90
21316;DHT22;10817;55.820;13.030;2022-10-16T11:58:23;21.40;99.90
21316;DHT22;10817;55.820;13.030;2022-10-16T12:00:57;21.30;99.90
21316;DHT22;10817;55.820;13.030;2022-10-16T12:03:30;21.30;99.90
21316;DHT22;10817;55.820;13.030;2022-10-16T12:06:07;21.00;99.90
21316;DHT22;10817;55.820;13.030;2022-10-16T12:08:39;19.00;99.90
21316;DHT22;10817;55.820;13.030;2022-10-16T12:11:20;18.10;99.90
21316;DHT22;10817;55.820;13.030;2022-10-16T12:13:48;17.40;99.90
21316;DHT22;10817;55.820;13.030;2022-10-16T12:16:22;17.20;99.90
21316;DHT22;10817;55.820;13.030;2022-10-16T12:19:09;17.70;99.90
21316;DHT22;10817;55.820;13.030;2022-10-16T12:21:37;18.80;99.90
21316;DHT22;10817;55.820;13.030;2022-10-16T12:24:05;19.80;99.90
21316;DHT22;10817;55.820;13.030;2022-10-16T12:26:38;20.00;99.90
21316;DHT22;10817;55.820;13.030;2022-10-16T12:29:14;19.60;99.90
21316;DHT22;10817;55.820;13.030;2022-10-16T12:31:47;18.60;99.90
21316;DHT22;10817;55.820;13.030;2022-10-16T12:34:23;17.50;99.90
21316;DHT22;10817;55.820;13.030;2022-10-16T12:36:56;17.00;99.90
21316;DHT22;10817;55.820;13.030;2022-10-16T12:39:35;16.80;99.90
21316;DHT22;10817;55.820;13.030;2022-10-16T12:45:24;17.90;99.90
21316;DHT22;10817;55.820;13.030;2022-10-16T12:47:53;18.90;99.90
21316;DHT22;10817;55.820;13.030;2022-10-16T12:50:30;18.90;99.90
21316;DHT22;10817;55.820;13.030;2022-10-16T12:52:58;18.60;99.90
21316;DHT22;10817;55.820;13.030;2022-10-16T12:55:27;19.30;99.90
21316;DHT22;10817;55.820;13.030;2022-10-16T12:58:13;20.00;99.90
21316;DHT22;10817;55.820;13.030;2022-10-16T13:00:50;20.20;99.90
21316;DHT22;10817;55.820;13.030;2022-10-16T13:03:40;19.80;99.90
21316;DHT22;10817;55.820;13.030;2022-10-16T13:06:19;19.10;99.90
21316;DHT22;10817;55.820;13.030;2022-10-16T13:09:06;17.80;99.90
21316;DHT22;10817;55.820;13.030;2022-10-16T13:11:46;16.90;99.90
21316;DHT22;10817;55.820;13.030;2022-10-16T13:14:44;16.60;99.90
21316;DHT22;10817;55.820;13.030;2022-10-16T13:17:20;16.40;99.90
21316;DHT22;10817;55.820;13.030;2022-10-16T13:19:55;16.50;99.90
21316;DHT22;10817;55.820;13.030;2022-10-16T13:22:31;16.50;99.90
21316;DHT22;10817;55.820;13.030;2022-10-16T13:25:14;16.50;99.90
21316;DHT22;10817;55.820;13.030;2022-10-16T13:27:50;16.40;99.90
21316;DHT22;10817;55.820;13.030;2022-10-16T13:30:24;16.40;99.90
21316;DHT22;10817;55.820;13.030;2022-10-16T13:33:00;16.50;99.90
21316;DHT22;10817;55.820;13.030;2022-10-16T13:35:31;17.50;99.90
21316;DHT22;10817;55.820;13.030;2022-10-16T13:38:15;17.40;99.90
21316;DHT22;10817;55.820;13.030;2022-10-16T13:40:51;17.80;99.90
21316;DHT22;10817;55.820;13.030;2022-10-16T13:43:20;17.90;99.90
21316;DHT22;10817;55.820;13.030;2022-10-16T13:45:58;17.50;99.90
21316;DHT22;10817;55.820;13.030;2022-10-16T13:48:27;17.20;99.90
21316;DHT22;10817;55.820;13.030;2022-10-16T13:51:06;16.80;99.90
21316;DHT22;10817;55.820;13.030;2022-10-16T13:53:34;16.50;99.90
21316;DHT22;10817;55.820;13.030;2022-10-16T13:56:04;16.20;99.90
21316;DHT22;10817;55.820;13.030;2022-10-16T13:58:31;16.00;99.90
21316;DHT22;10817;55.820;13.030;2022-10-16T14:01:02;15.80;99.90
21316;DHT22;10817;55.820;13.030;2022-10-16T14:03:32;15.40;99.90
21316;DHT22;10817;55.820;13.030;2022-10-16T14:06:03;14.80;99.90
21316;DHT22;10817;55.820;13.030;2022-10-16T14:08:31;14.30;99.90
21316;DHT22;10817;55.820;13.030;2022-10-16T14:10:59;14.00;99.90
21316;DHT22;10817;55.820;13.030;2022-10-16T14:13:31;13.70;99.90
21316;DHT22;10817;55.820;13.030;2022-10-16T14:16:05;13.60;99.90
21316;DHT22;10817;55.820;13.030;2022-10-16T14:18:33;13.40;99.90
21316;DHT22;10817;55.820;13.030;2022-10-16T14:21:06;13.30;99.90
21316;DHT22;10817;55.820;13.030;2022-10-16T14:23:36;13.50;99.90
21316;DHT22;10817;55.820;13.030;2022-10-16T14:26:18;14.00;99.90
21316;DHT22;10817;55.820;13.030;2022-10-16T14:28:46;14.30;99.90
21316;DHT22;10817;55.820;13.030;2022-10-16T14:31:25;14.30;99.90
21316;DHT22;10817;55.820;13.030;2022-10-16T14:33:54;14.50;99.90
21316;DHT22;10817;55.820;13.030;2022-10-16T14:36:22;15.00;99.90
21316;DHT22;10817;55.820;13.030;2022-10-16T14:38:54;15.10;99.90
21316;DHT22;10817;55.820;13.030;2022-10-16T14:41:23;15.10;99.90
21316;DHT22;10817;55.820;13.030;2022-10-16T14:43:53;15.40;99.90
21316;DHT22;10817;55.820;13.030;2022-10-16T14:46:30;15.90;99.90
21316;DHT22;10817;55.820;13.030;2022-10-16T14:49:02;16.50;99.90
21316;DHT22;10817;55.820;13.030;2022-10-16T14:51:30;16.60;99.90
21316;DHT22;10817;55.820;13.030;2022-10-16T14:53:57;16.60;99.90
21316;DHT22;10817;55.820;13.030;2022-10-16T14:56:25;16.50;99.90
21316;DHT22;10817;55.820;13.030;2022-10-16T14:58:55;16.20;99.90
21316;DHT22;10817;55.820;13.030;2022-10-16T15:01:26;16.20;99.90
21316;DHT22;10817;55.820;13.030;2022-10-16T15:03:53;16.00;99.90
21316;DHT22;10817;55.820;13.030;2022-10-16T15:06:21;16.00;99.90
21316;DHT22;10817;55.820;13.030;2022-10-16T15:08:50;16.30;99.90
21316;DHT22;10817;55.820;13.030;2022-10-16T15:11:19;16.20;99.90
21316;DHT22;10817;55.820;13.030;2022-10-16T15:13:46;16.00;99.90
21316;DHT22;10817;55.820;13.030;2022-10-16T15:16:15;15.50;99.90
21316;DHT22;10817;55.820;13.030;2022-10-16T15:18:43;15.20;99.90
21316;DHT22;10817;55.820;13.030;2022-10-16T15:21:22;15.10;99.90
21316;DHT22;10817;55.820;13.030;2022-10-16T15:23:50;15.10;99.90
21316;DHT22;10817;55.820;13.030;2022-10-16T15:26:17;15.00;99.90
21316;DHT22;10817;55.820;13.030;2022-10-16T15:28:44;14.90;99.90
21316;DHT22;10817;55.820;13.030;2022-10-16T15:31:12;14.70;99.90
21316;DHT22;10817;55.820;13.030;2022-10-16T15:33:40;14.70;99.90
21316;DHT22;10817;55.820;13.030;2022-10-16T15:36:08;14.60;99.90
21316;DHT22;10817;55.820;13.030;2022-10-16T15:38:35;14.50;99.90
21316;DHT22;10817;55.820;13.030;2022-10-16T15:41:02;14.50;99.90
21316;DHT22;10817;55.820;13.030;2022-10-16T15:43:29;14.40;99.90